Thatcher, Arizona
Current Conditions -  °F | °C
As of 2:51 PM on Thursday 23 Oct 2014 (Local Time) from KSAD Reporting Station
Clear Clear  
Wind Chill: 84°   Ceiling: Unl
Heat Index: 84°   Visibility: 10mi
Dew Point: 45°   Wind: 6mph
Humidity: 25%   Direction: NA
Pressure: 30.06"   Gusts: NA
Location:  32.85°N, 109.76°W
Report Text: KSAD 232151Z AUTO VRB05KT 10SM CLR 29/07 A3006 RMK AO2 SLP138 T02890072
Loading
Personal Weather Stations






























Interactive Weather Map
Tropical Storm Tracking
New forecast layout! Learn more

10-Day Weather Forecast

Advertisements
Track Severe Weather on mobile